createdAt,value
2023-01-20T00:03:32.653Z,846.90
2023-01-20T00:06:38.777Z,832.70
2023-01-20T00:09:49.340Z,883.10
2023-01-20T00:12:54.705Z,875.40
2023-01-20T00:16:03.511Z,863.78
2023-01-20T00:19:15.790Z,882.75
2023-01-20T00:22:22.872Z,886.20
2023-01-20T00:25:30.618Z,752.88
2023-01-20T00:28:39.381Z,846.05
2023-01-20T00:31:48.913Z,825.70
2023-01-20T00:34:55.011Z,881.53
2023-01-20T00:37:58.220Z,783.90
2023-01-20T00:41:01.642Z,821.97
2023-01-20T00:44:06.586Z,808.00
2023-01-20T00:47:09.807Z,801.28
2023-01-20T00:50:13.071Z,833.78
2023-01-20T00:53:16.319Z,831.67
2023-01-20T00:56:19.551Z,788.88
2023-01-20T00:59:24.249Z,831.58
2023-01-20T01:02:27.477Z,796.05
2023-01-20T01:05:30.771Z,812.08
2023-01-20T01:08:35.947Z,802.00
2023-01-20T01:11:39.229Z,830.78
2023-01-20T01:14:43.841Z,897.63
2023-01-20T01:17:47.008Z,857.75
2023-01-20T01:20:50.328Z,856.58
2023-01-20T01:23:53.855Z,868.80
2023-01-20T01:26:57.162Z,880.30
2023-01-20T01:30:01.877Z,854.08
2023-01-20T01:33:05.416Z,896.30
2023-01-20T01:36:12.083Z,838.92
2023-01-20T01:39:15.244Z,852.15
2023-01-20T01:42:21.036Z,891.30
2023-01-20T01:45:30.131Z,838.58
2023-01-20T01:48:37.537Z,826.97
2023-01-20T01:51:43.538Z,842.10
2023-01-20T01:54:46.991Z,833.97
2023-01-20T01:57:51.292Z,856.38
2023-01-20T02:00:57.495Z,855.67
2023-01-20T02:04:05.535Z,845.95
2023-01-20T02:07:14.377Z,863.28
2023-01-20T02:10:18.454Z,899.03
2023-01-20T02:13:21.841Z,883.33
2023-01-20T02:16:37.076Z,766.25
2023-01-20T02:20:11.443Z,828.67
2023-01-20T02:23:26.463Z,855.08
2023-01-20T02:26:47.325Z,898.42
2023-01-20T02:30:18.723Z,880.55
2023-01-20T02:33:29.322Z,879.40
2023-01-20T02:36:41.862Z,785.55
2023-01-20T02:40:06.373Z,865.70
2023-01-20T02:43:17.467Z,853.33
2023-01-20T02:46:26.870Z,832.78
2023-01-20T02:49:35.640Z,885.67
2023-01-20T02:52:41.779Z,836.45
2023-01-20T02:55:49.297Z,864.25
2023-01-20T02:58:57.667Z,786.63
2023-01-20T03:02:04.862Z,755.88
2023-01-20T03:05:14.189Z,883.13
2023-01-20T03:08:18.701Z,636.57
2023-01-20T03:11:22.026Z,834.80
2023-01-20T03:14:25.475Z,819.03
2023-01-20T03:17:28.821Z,868.97
2023-01-20T03:20:33.689Z,830.78
2023-01-20T03:23:39.151Z,891.42
2023-01-20T03:26:42.599Z,878.80
2023-01-20T03:29:45.882Z,827.42
2023-01-20T03:32:51.243Z,852.92
2023-01-20T03:35:56.282Z,869.08
2023-01-20T03:39:00.336Z,815.72
2023-01-20T03:42:09.068Z,668.22
2023-01-20T03:45:18.487Z,693.30
2023-01-20T03:48:31.323Z,712.23
2023-01-20T03:51:45.265Z,739.70
2023-01-20T03:54:53.740Z,786.92
2023-01-20T03:58:03.407Z,767.55
2023-01-20T04:01:18.014Z,736.83
2023-01-20T04:04:22.685Z,831.10
2023-01-20T04:07:28.862Z,808.42
2023-01-20T04:10:34.149Z,835.15
2023-01-20T04:13:37.970Z,822.45
2023-01-20T04:16:41.530Z,802.55
2023-01-20T04:19:44.922Z,790.25
2023-01-20T04:22:53.147Z,777.42
2023-01-20T04:25:56.437Z,790.17
2023-01-20T04:28:59.757Z,778.58
2023-01-20T04:32:04.523Z,753.42
2023-01-20T04:35:08.447Z,784.25
2023-01-20T04:38:13.044Z,733.38
2023-01-20T04:41:16.298Z,752.33
2023-01-20T04:44:19.566Z,731.45
2023-01-20T04:47:22.924Z,706.25
2023-01-20T04:50:26.140Z,663.08
2023-01-20T04:53:30.740Z,658.78
2023-01-20T04:56:34.370Z,657.40
2023-01-20T04:59:37.628Z,632.30
2023-01-20T05:02:40.912Z,652.22
2023-01-20T05:05:44.130Z,628.53
2023-01-20T05:08:48.796Z,539.67
2023-01-20T05:11:52.081Z,567.70
2023-01-20T05:14:55.332Z,597.63
2023-01-20T05:17:58.947Z,632.00
2023-01-20T05:21:02.612Z,546.08
2023-01-20T05:24:07.936Z,559.80
2023-01-20T05:27:11.165Z,579.45
2023-01-20T05:30:14.775Z,529.47
2023-01-20T05:33:18.113Z,584.80
2023-01-20T05:36:21.733Z,567.63
2023-01-20T05:39:41.736Z,525.85
2023-01-20T05:42:44.978Z,560.65
2023-01-20T05:45:48.292Z,569.13
2023-01-20T05:48:51.808Z,595.50
2023-01-20T05:51:55.394Z,559.72
2023-01-20T05:55:00.087Z,559.08
2023-01-20T05:58:04.003Z,631.65
2023-01-20T06:01:08.340Z,591.17
2023-01-20T06:04:11.675Z,571.30
2023-01-20T06:07:15.733Z,561.58
2023-01-20T06:10:20.492Z,617.88
2023-01-20T06:13:23.994Z,610.22
2023-01-20T06:16:27.997Z,603.63
2023-01-20T06:19:31.443Z,581.92
2023-01-20T06:22:34.763Z,584.28
2023-01-20T06:25:39.679Z,564.72
2023-01-20T06:28:43.093Z,571.50
2023-01-20T06:31:46.647Z,574.85
2023-01-20T06:34:49.965Z,597.25
2023-01-20T06:37:53.288Z,577.85
2023-01-20T06:41:00.293Z,547.00
2023-01-20T06:44:03.611Z,615.22
2023-01-20T06:47:07.005Z,663.58
2023-01-20T06:50:17.986Z,573.40
2023-01-20T06:53:21.957Z,595.55
2023-01-20T06:56:31.215Z,581.65
2023-01-20T06:59:39.917Z,554.53
2023-01-20T07:02:53.195Z,628.45
2023-01-20T07:05:59.936Z,538.88
2023-01-20T07:09:07.416Z,627.25
2023-01-20T07:12:12.606Z,614.28
2023-01-20T07:15:19.020Z,606.25
2023-01-20T07:18:29.635Z,622.70
2023-01-20T07:21:33.571Z,539.38
2023-01-20T07:24:40.438Z,605.75
2023-01-20T07:27:48.503Z,551.63
2023-01-20T07:34:25.417Z,600.53
2023-01-20T07:37:31.003Z,537.95
2023-01-20T07:40:37.690Z,551.90
2023-01-20T07:43:42.746Z,581.92
2023-01-20T07:46:46.512Z,520.15
2023-01-20T07:49:50.030Z,567.58
2023-01-20T07:52:55.077Z,516.08
2023-01-20T07:56:01.332Z,1115.90
2023-01-20T07:59:06.275Z,1060.32
2023-01-20T08:02:10.812Z,833.88
2023-01-20T08:05:15.379Z,865.20
2023-01-20T08:08:18.746Z,742.63
2023-01-20T08:11:23.562Z,708.80
2023-01-20T08:14:28.429Z,779.70
2023-01-20T08:17:31.660Z,750.45
2023-01-20T08:20:34.969Z,757.05
2023-01-20T08:23:39.359Z,802.15
2023-01-20T08:26:42.592Z,784.08
2023-01-20T08:29:47.501Z,788.22
2023-01-20T08:32:50.990Z,777.85
2023-01-20T08:35:56.771Z,740.70
2023-01-20T08:39:02.928Z,789.35
2023-01-20T08:42:06.257Z,756.92
2023-01-20T08:45:11.587Z,769.78
2023-01-20T08:48:16.529Z,734.08
2023-01-20T08:51:22.800Z,733.28
2023-01-20T08:54:26.258Z,721.85
2023-01-20T08:57:29.656Z,638.53
2023-01-20T09:00:35.462Z,614.00
2023-01-20T09:03:39.797Z,599.05
2023-01-20T09:06:46.244Z,609.58
2023-01-20T09:09:49.481Z,628.03
2023-01-20T09:12:52.783Z,611.85
2023-01-20T09:15:57.545Z,648.63
2023-01-20T09:19:00.898Z,610.35
2023-01-20T09:22:04.847Z,544.25
2023-01-20T09:25:09.296Z,562.15
2023-01-20T09:28:14.200Z,505.88
2023-01-20T09:31:19.598Z,512.10
2023-01-20T09:34:24.824Z,520.72
2023-01-20T09:37:45.466Z,573.10
2023-01-20T09:41:14.879Z,578.72
2023-01-20T09:44:30.985Z,593.10
2023-01-20T09:47:43.210Z,568.28
2023-01-20T09:51:08.756Z,528.80
2023-01-20T09:54:17.799Z,491.15
2023-01-20T09:57:26.088Z,511.65
2023-01-20T10:00:32.517Z,495.85
2023-01-20T10:03:42.957Z,490.88
2023-01-20T10:06:49.814Z,883.38
2023-01-20T10:10:00.579Z,506.58
2023-01-20T10:13:07.939Z,487.90
2023-01-20T10:16:13.500Z,465.13
2023-01-20T10:19:27.277Z,655.78
2023-01-20T10:22:35.526Z,518.90
2023-01-20T10:25:42.915Z,497.77
2023-01-20T10:28:52.768Z,470.98
2023-01-20T10:32:03.113Z,466.35
2023-01-20T10:35:15.595Z,505.13
2023-01-20T10:38:23.830Z,495.20
2023-01-20T10:41:35.820Z,446.20
2023-01-20T10:44:39.283Z,503.77
2023-01-20T10:47:48.905Z,501.75
2023-01-20T10:51:02.862Z,501.35
2023-01-20T10:54:19.434Z,483.10
2023-01-20T10:57:23.726Z,476.83
2023-01-20T11:00:30.785Z,495.98
2023-01-20T11:03:38.143Z,488.23
2023-01-20T11:06:43.658Z,501.67
2023-01-20T11:09:49.352Z,508.58
2023-01-20T11:12:55.040Z,527.80
2023-01-20T11:16:04.479Z,482.60
2023-01-20T11:19:08.474Z,376.40
2023-01-20T11:22:14.245Z,486.15
2023-01-20T11:25:26.894Z,527.15
2023-01-20T11:28:38.163Z,562.40
2023-01-20T11:31:44.954Z,499.40
2023-01-20T11:34:51.081Z,500.15
2023-01-20T11:37:56.345Z,536.95
2023-01-20T11:40:59.852Z,473.10
2023-01-20T11:44:03.286Z,496.27
2023-01-20T11:47:22.098Z,462.50
2023-01-20T11:50:29.752Z,544.38
2023-01-20T11:53:36.570Z,484.63
2023-01-20T11:56:42.909Z,507.83
2023-01-20T11:59:51.925Z,554.35
2023-01-20T12:03:00.640Z,564.72
2023-01-20T12:06:15.251Z,543.60
2023-01-20T12:09:24.240Z,533.85
2023-01-20T12:12:33.725Z,542.85
2023-01-20T12:15:45.384Z,448.30
2023-01-20T12:19:02.148Z,567.05
2023-01-20T12:22:14.116Z,504.55
2023-01-20T12:25:22.181Z,544.40
2023-01-20T12:28:30.658Z,553.40
2023-01-20T12:31:34.427Z,573.97
2023-01-20T12:34:38.637Z,658.42
2023-01-20T12:37:47.956Z,657.25
2023-01-20T12:40:54.942Z,456.43
2023-01-20T12:44:02.330Z,654.95
2023-01-20T12:47:15.858Z,631.67
2023-01-20T12:50:32.065Z,664.15
2023-01-20T12:53:54.094Z,676.03
2023-01-20T12:57:06.122Z,653.22
2023-01-20T13:00:27.149Z,655.90
2023-01-20T13:03:55.147Z,687.40
2023-01-20T13:07:24.306Z,681.10
2023-01-20T13:10:49.380Z,693.22
2023-01-20T13:14:09.611Z,708.20
2023-01-20T13:17:21.949Z,732.28
2023-01-20T13:20:28.533Z,715.67
2023-01-20T13:23:36.863Z,650.28
2023-01-20T13:26:40.750Z,674.85
2023-01-20T13:29:55.855Z,713.03
2023-01-20T13:33:08.526Z,695.03
2023-01-20T13:36:18.326Z,691.33
2023-01-20T13:39:42.154Z,538.28
2023-01-20T13:42:53.918Z,651.17
2023-01-20T13:46:48.345Z,661.28
2023-01-20T13:49:52.788Z,679.17
2023-01-20T13:53:25.193Z,682.28
2023-01-20T13:56:44.673Z,730.80
2023-01-20T13:59:48.187Z,731.53
2023-01-20T14:02:53.170Z,779.47
2023-01-20T14:05:58.973Z,754.28
2023-01-20T14:09:02.722Z,765.22
2023-01-20T14:12:08.729Z,788.50
2023-01-20T14:15:35.830Z,775.63
2023-01-20T14:18:42.340Z,789.10
2023-01-20T14:21:45.697Z,816.42
2023-01-20T14:24:52.670Z,830.78
2023-01-20T14:27:57.149Z,852.63
2023-01-20T14:31:18.061Z,825.13
2023-01-20T14:34:28.287Z,800.28
2023-01-20T14:37:33.924Z,835.25
2023-01-20T14:40:37.556Z,842.95
2023-01-20T14:43:46.693Z,810.53
2023-01-20T14:46:52.171Z,799.90
2023-01-20T14:50:34.264Z,675.95
2023-01-20T14:53:39.115Z,667.35
2023-01-20T14:56:48.792Z,658.70
2023-01-20T15:00:16.300Z,698.30
2023-01-20T15:03:23.968Z,691.53
2023-01-20T15:06:27.654Z,641.70
2023-01-20T15:09:33.838Z,692.40
2023-01-20T15:12:42.704Z,692.78
2023-01-20T15:15:46.062Z,718.50
2023-01-20T15:19:29.364Z,758.35
2023-01-20T15:22:32.759Z,822.90
2023-01-20T15:25:38.597Z,807.00
2023-01-20T15:28:44.468Z,718.05
2023-01-20T15:31:47.875Z,816.05
2023-01-20T15:34:51.379Z,861.55
2023-01-20T15:37:55.255Z,799.40
2023-01-20T15:41:00.102Z,870.72
2023-01-20T15:44:03.387Z,873.50
2023-01-20T15:47:12.092Z,837.20
2023-01-20T15:50:21.051Z,791.45
2023-01-20T15:53:24.741Z,838.08
2023-01-20T15:56:31.700Z,872.05
2023-01-20T15:59:35.146Z,833.70
2023-01-20T16:02:38.551Z,823.63
2023-01-20T16:05:41.911Z,862.13
2023-01-20T16:08:47.415Z,828.25
2023-01-20T16:11:52.243Z,815.83
2023-01-20T16:14:55.689Z,807.80
2023-01-20T16:17:59.010Z,825.53
2023-01-20T16:21:02.604Z,882.88
2023-01-20T16:24:07.036Z,877.53
2023-01-20T16:27:18.987Z,844.97
2023-01-20T16:30:25.751Z,859.90
2023-01-20T16:33:29.256Z,1036.13
2023-01-20T16:36:32.808Z,874.30
2023-01-20T16:39:36.436Z,825.92
2023-01-20T16:42:41.404Z,934.08
2023-01-20T16:45:45.441Z,983.10
2023-01-20T16:48:49.362Z,957.05
2023-01-20T16:51:54.767Z,983.90
2023-01-20T16:54:58.548Z,950.10
2023-01-20T16:58:04.694Z,915.08
2023-01-20T17:01:12.312Z,903.88
2023-01-20T17:04:15.945Z,945.00
2023-01-20T17:07:19.297Z,929.97
2023-01-20T17:10:22.890Z,920.97
2023-01-20T17:13:27.826Z,901.22
2023-01-20T17:16:31.751Z,902.05
2023-01-20T17:19:36.734Z,864.30
2023-01-20T17:22:41.052Z,872.47
2023-01-20T17:25:44.557Z,872.63
2023-01-20T17:28:49.856Z,911.50
2023-01-20T17:31:54.852Z,885.58
2023-01-20T17:35:00.247Z,888.28
2023-01-20T17:38:03.967Z,891.92
2023-01-20T17:41:08.871Z,869.30
2023-01-20T17:44:13.973Z,898.55
2023-01-20T17:47:17.441Z,847.90
2023-01-20T17:50:21.366Z,884.33
2023-01-20T17:53:24.719Z,903.45
2023-01-20T17:56:29.092Z,904.38
2023-01-20T17:59:34.287Z,928.92
2023-01-20T18:02:38.029Z,906.38
2023-01-20T18:05:42.429Z,940.55
2023-01-20T18:08:50.727Z,945.88
2023-01-20T18:11:54.469Z,1018.78
2023-01-20T18:14:59.571Z,965.67
2023-01-20T18:18:03.353Z,1012.17
2023-01-20T18:21:10.806Z,1005.42
2023-01-20T18:24:14.512Z,984.70
2023-01-20T18:27:19.213Z,936.40
2023-01-20T18:30:28.553Z,948.38
2023-01-20T18:33:34.355Z,963.28
2023-01-20T18:36:41.266Z,952.00
2023-01-20T18:39:45.210Z,976.35
2023-01-20T18:42:49.059Z,947.38
2023-01-20T18:45:57.473Z,998.75
2023-01-20T18:49:01.175Z,977.80
2023-01-20T18:52:05.038Z,1037.43
2023-01-20T18:55:09.874Z,1022.80
2023-01-20T18:58:16.496Z,1042.55
2023-01-20T19:01:23.670Z,990.20
2023-01-20T19:04:27.424Z,1028.60
2023-01-20T19:07:31.061Z,1018.90
2023-01-20T19:10:34.819Z,1021.97
2023-01-20T19:13:38.543Z,1018.70
2023-01-20T19:16:45.597Z,1020.88
2023-01-20T19:19:50.242Z,1049.03
2023-01-20T19:22:53.732Z,1013.10
2023-01-20T19:26:03.663Z,1030.90
2023-01-20T19:29:08.538Z,1001.13
2023-01-20T19:32:13.447Z,993.05
2023-01-20T19:35:16.981Z,995.67
2023-01-20T19:38:20.531Z,1008.42
2023-01-20T19:41:27.861Z,1023.63
2023-01-20T19:44:31.880Z,1031.00
2023-01-20T19:47:37.064Z,1014.83
2023-01-20T19:50:40.587Z,963.83
2023-01-20T19:53:46.067Z,971.88
2023-01-20T19:56:49.715Z,1030.57
2023-01-20T19:59:53.668Z,1018.97
2023-01-20T20:02:58.432Z,1022.00
2023-01-20T20:06:02.300Z,1025.13
2023-01-20T20:09:10.719Z,988.30
2023-01-20T20:12:14.020Z,1040.88
2023-01-20T20:15:18.038Z,1032.43
2023-01-20T20:18:23.541Z,1026.53
2023-01-20T20:21:29.190Z,1034.28
2023-01-20T20:24:32.990Z,1012.00
2023-01-20T20:27:37.883Z,1045.88
2023-01-20T20:30:43.577Z,1051.45
2023-01-20T20:33:49.461Z,1089.38
2023-01-20T20:36:53.039Z,1026.63
2023-01-20T20:39:56.528Z,1024.82
2023-01-20T20:43:00.016Z,1038.80
2023-01-20T20:46:04.188Z,981.45
2023-01-20T20:49:09.920Z,966.92
2023-01-20T20:52:13.925Z,1016.38
2023-01-20T20:55:18.300Z,1011.10
2023-01-20T20:58:22.421Z,1020.67
2023-01-20T21:01:26.382Z,1003.47
2023-01-20T21:04:31.558Z,1025.38
2023-01-20T21:07:35.140Z,1029.85
2023-01-20T21:10:39.269Z,1026.00
2023-01-20T21:13:44.447Z,1009.78
2023-01-20T21:16:50.159Z,1029.30
2023-01-20T21:19:55.487Z,1064.43
2023-01-20T21:22:58.959Z,1048.40
2023-01-20T21:26:03.397Z,1056.60
2023-01-20T21:29:06.996Z,1056.00
2023-01-20T21:32:11.170Z,1046.90
2023-01-20T21:35:18.630Z,1029.05
2023-01-20T21:38:22.515Z,1064.63
2023-01-20T21:41:26.159Z,1047.07
2023-01-20T21:44:29.839Z,1022.60
2023-01-20T21:47:34.679Z,977.83
2023-01-20T21:50:56.772Z,1030.63
2023-01-20T21:54:00.192Z,1015.40
2023-01-20T21:57:04.775Z,1013.60
2023-01-20T22:00:12.110Z,1006.25
2023-01-20T22:03:16.546Z,1022.67
2023-01-20T22:06:22.001Z,1065.15
2023-01-20T22:09:25.959Z,1004.25
2023-01-20T22:12:33.768Z,1068.97
2023-01-20T22:15:39.538Z,1059.18
2023-01-20T22:18:47.105Z,1046.00
2023-01-20T22:21:52.798Z,1038.38
2023-01-20T22:24:59.429Z,1023.38
2023-01-20T22:28:04.534Z,1058.07
2023-01-20T22:31:08.680Z,1036.13
2023-01-20T22:34:12.144Z,996.70
2023-01-20T22:37:16.977Z,1053.72
2023-01-20T22:40:21.560Z,1074.10
2023-01-20T22:43:25.289Z,1029.40
2023-01-20T22:46:29.936Z,1043.18
2023-01-20T22:49:33.298Z,1009.90
2023-01-20T22:52:38.505Z,1006.35
2023-01-20T22:55:52.336Z,1051.13
2023-01-20T22:59:03.638Z,1035.15
2023-01-20T23:02:07.247Z,1058.10
2023-01-20T23:05:10.974Z,1017.22
2023-01-20T23:08:16.173Z,1078.53
2023-01-20T23:11:22.271Z,1015.53
2023-01-20T23:14:57.864Z,1040.75
2023-01-20T23:18:01.262Z,1049.28
2023-01-20T23:21:05.849Z,1034.82
2023-01-20T23:24:10.687Z,1035.40
2023-01-20T23:27:13.985Z,1042.70
2023-01-20T23:30:18.329Z,1031.45
2023-01-20T23:33:21.904Z,1035.70
2023-01-20T23:36:27.012Z,1044.07
2023-01-20T23:39:31.729Z,1029.63
2023-01-20T23:42:35.120Z,1040.50
2023-01-20T23:45:38.486Z,1059.50
2023-01-20T23:48:41.864Z,991.83
2023-01-20T23:51:45.496Z,1031.32
2023-01-20T23:54:50.210Z,1074.13
2023-01-20T23:57:53.495Z,994.95
